Time;durP1;ratioP1;P1;durP2;ratioP2;P2;SDS_P1;SDS_P2;PMS_P1;PMS_P2;Temp;Humidity;BMP_temperature;BMP_pressure;BME280_temperature;BME280_humidity;BME280_pressure;Samples;Min_cycle;Max_cycle;Signal;HPM_P1;HPM_P2
2022/08/23 00:02:46;;;;;;;;;;;;;;;29.21;38.76;94161.16;4920203;29;7604;-63
2022/08/23 00:05:12;;;;;;;;;;;;;;;29.20;38.62;94159.66;4892944;29;7235;-63
2022/08/23 00:07:42;;;;;;;;;;;;;;;29.20;38.95;94154.09;4956207;28;9417;-63
2022/08/23 00:10:17;;;;;;;;;;;;;;;29.19;39.10;94158.16;4969554;28;7171;-60
2022/08/23 00:13:02;;;;;;;;;;;;;;;29.18;38.75;94159.44;4967160;28;9447;-61
2022/08/23 00:15:47;;;;;;;;;;;;;;;29.18;38.87;94154.66;4969679;28;7439;-60
2022/08/23 00:18:43;;;;;;;;;;;;;;;29.18;39.24;94159.44;4971007;28;7483;-61
2022/08/23 00:21:18;;;;;;;;;;;;;;;29.17;39.12;94167.00;4910899;29;7345;-61
2022/08/23 00:23:44;;;;;;;;;;;;;;;29.17;38.86;94155.91;4931700;29;7001;-61
2022/08/23 00:26:14;;;;;;;;;;;;;;;29.16;38.61;94153.66;4926041;29;9421;-61
2022/08/23 00:28:49;;;;;;;;;;;;;;;29.14;38.28;94147.94;4916373;29;7567;-61
2022/08/23 00:31:31;;;;;;;;;;;;;;;29.15;38.61;94161.22;4910202;29;10572;-61
2022/08/23 00:34:07;;;;;;;;;;;;;;;29.14;39.38;94156.25;4905970;29;7433;-61
2022/08/23 00:36:37;;;;;;;;;;;;;;;29.13;38.90;94149.94;4928502;29;7553;-61
2022/08/23 00:39:04;;;;;;;;;;;;;;;29.14;38.92;94153.47;4931742;29;7307;-61
2022/08/23 00:41:34;;;;;;;;;;;;;;;29.13;38.47;94152.72;4927963;29;9031;-61
2022/08/23 00:50:25;;;;;;;;;;;;;;;29.12;38.57;94148.47;4929865;29;7173;-61
2022/08/23 00:53:19;;;;;;;;;;;;;;;29.12;39.12;94153.28;4892371;29;7434;-61
2022/08/23 00:56:18;;;;;;;;;;;;;;;29.10;38.58;94143.47;4877309;29;7237;-61
2022/08/23 00:58:52;;;;;;;;;;;;;;;29.10;38.54;94145.50;4925080;29;7227;-60
2022/08/23 01:01:27;;;;;;;;;;;;;;;29.09;38.82;94153.06;4918788;29;7196;-61
2022/08/23 01:04:12;;;;;;;;;;;;;;;29.08;39.06;94148.78;4931242;29;7269;-61
2022/08/23 01:06:57;;;;;;;;;;;;;;;29.08;38.40;94161.91;4932571;29;7209;-61
2022/08/23 01:09:32;;;;;;;;;;;;;;;29.05;38.62;94155.44;4930784;29;7412;-60
2022/08/23 01:12:36;;;;;;;;;;;;;;;29.08;38.63;94159.13;4932714;29;9109;-60
2022/08/23 01:15:27;;;;;;;;;;;;;;;29.07;38.87;94161.19;4842064;29;7554;-60
2022/08/23 01:18:04;;;;;;;;;;;;;;;29.07;38.72;94158.41;4851944;29;7377;-60
2022/08/23 01:20:50;;;;;;;;;;;;;;;29.05;38.51;94163.00;4838052;29;7243;-61
2022/08/23 01:23:40;;;;;;;;;;;;;;;29.05;38.25;94166.50;4849154;29;9561;-60
2022/08/23 01:26:37;;;;;;;;;;;;;;;29.04;39.09;94165.00;4848637;29;7184;-61
2022/08/23 01:29:15;;;;;;;;;;;;;;;29.04;39.04;94170.56;4827981;29;9931;-61
2022/08/23 01:31:50;;;;;;;;;;;;;;;29.03;38.97;94160.78;4849161;29;7003;-61
2022/08/23 01:34:23;;;;;;;;;;;;;;;29.04;38.62;94165.00;4843761;29;7400;-61
2022/08/23 01:36:52;;;;;;;;;;;;;;;29.02;38.79;94167.56;4835537;29;7779;-61
2022/08/23 01:39:18;;;;;;;;;;;;;;;29.02;38.90;94162.03;4836879;29;7011;-61
2022/08/23 01:41:44;;;;;;;;;;;;;;;29.02;39.02;94172.38;4853207;29;7579;-61
2022/08/23 01:44:10;;;;;;;;;;;;;;;29.02;39.57;94162.03;4859334;29;7129;-60
2022/08/23 01:46:43;;;;;;;;;;;;;;;29.01;38.90;94166.06;4854235;29;7469;-60
2022/08/23 01:49:18;;;;;;;;;;;;;;;28.99;38.92;94176.94;4854384;29;7196;-61
2022/08/23 01:51:56;;;;;;;;;;;;;;;29.00;38.81;94170.16;4885536;29;10006;-61
2022/08/23 01:54:30;;;;;;;;;;;;;;;29.01;38.89;94171.63;4899997;29;7235;-61
2022/08/23 01:57:10;;;;;;;;;;;;;;;28.99;39.25;94171.41;4915346;29;7226;-61
2022/08/23 01:59:37;;;;;;;;;;;;;;;28.98;38.99;94169.94;4915663;29;7271;-60
2022/08/23 02:02:04;;;;;;;;;;;;;;;28.98;38.85;94169.19;4916498;29;7311;-60
2022/08/23 02:04:31;;;;;;;;;;;;;;;28.98;38.67;94166.44;4919299;28;6946;-61
2022/08/23 02:07:03;;;;;;;;;;;;;;;28.97;38.88;94167.72;4990282;28;7219;-60
2022/08/23 02:09:30;;;;;;;;;;;;;;;28.97;38.98;94171.22;4971452;28;7240;-61
2022/08/23 02:12:05;;;;;;;;;;;;;;;28.98;38.68;94171.97;4965287;28;7159;-60
2022/08/23 02:14:33;;;;;;;;;;;;;;;28.97;38.99;94173.97;4986909;28;9025;-61
2022/08/23 02:17:01;;;;;;;;;;;;;;;28.97;39.28;94182.28;4967236;28;9530;-60
2022/08/23 02:19:37;;;;;;;;;;;;;;;28.96;38.63;94178.03;4984699;28;9470;-60
2022/08/23 02:22:05;;;;;;;;;;;;;;;28.96;38.69;94175.28;4968843;28;7033;-61
2022/08/23 02:24:39;;;;;;;;;;;;;;;28.96;38.72;94177.28;4974543;28;7498;-61
2022/08/23 02:27:34;;;;;;;;;;;;;;;28.95;38.98;94184.84;4968336;28;7191;-61
2022/08/23 02:30:31;;;;;;;;;;;;;;;28.95;38.53;94173.78;4912171;29;7341;-60
2022/08/23 02:33:32;;;;;;;;;;;;;;;28.96;38.62;94178.03;4877649;29;9246;-61
2022/08/23 02:36:17;;;;;;;;;;;;;;;28.94;38.96;94177.84;4799610;29;7069;-60
2022/08/23 02:38:43;;;;;;;;;;;;;;;28.94;38.80;94177.09;4806051;29;8260;-60
2022/08/23 02:41:09;;;;;;;;;;;;;;;28.94;38.83;94180.63;4822122;29;7157;-61
2022/08/23 02:43:45;;;;;;;;;;;;;;;28.93;38.79;94179.13;4822758;29;7205;-61
2022/08/23 02:46:15;;;;;;;;;;;;;;;28.95;38.52;94178.56;4821439;29;7343;-60
2022/08/23 02:49:10;;;;;;;;;;;;;;;28.94;38.57;94188.91;4804171;29;9703;-61
2022/08/23 02:51:55;;;;;;;;;;;;;;;28.93;38.69;94181.88;4719732;30;7366;-60
2022/08/23 02:54:29;;;;;;;;;;;;;;;28.93;38.49;94181.13;4745189;30;7274;-60
2022/08/23 02:57:08;;;;;;;;;;;;;;;28.93;38.92;94183.91;4748579;30;7329;-61
2022/08/23 02:59:59;;;;;;;;;;;;;;;28.91;38.82;94178.91;4743136;30;7068;-60
2022/08/23 03:02:27;;;;;;;;;;;;;;;28.90;38.28;94179.47;4749895;30;8574;-60
2022/08/23 03:04:53;;;;;;;;;;;;;;;28.90;38.22;94177.44;4735025;30;6891;-60
2022/08/23 03:07:32;;;;;;;;;;;;;;;28.90;39.01;94182.97;4767949;30;7019;-61
2022/08/23 03:10:27;;;;;;;;;;;;;;;28.90;38.89;94191.28;4829786;29;7089;-61
2022/08/23 03:13:02;;;;;;;;;;;;;;;28.87;38.64;94184.03;4871682;29;9548;-60
2022/08/23 03:15:56;;;;;;;;;;;;;;;28.88;39.17;94191.03;4851389;29;6988;-60
2022/08/23 03:18:41;;;;;;;;;;;;;;;28.87;38.46;94184.03;4867153;29;7312;-61
2022/08/23 03:21:18;;;;;;;;;;;;;;;28.87;38.79;94189.56;4858607;29;7927;-61
2022/08/23 03:23:44;;;;;;;;;;;;;;;28.87;38.80;94189.56;4855944;29;7359;-60
2022/08/23 03:26:15;;;;;;;;;;;;;;;28.88;38.69;94198.63;4850944;29;7238;-60
2022/08/23 03:28:47;;;;;;;;;;;;;;;28.87;38.50;94195.09;4946163;28;9346;-60
2022/08/23 03:31:14;;;;;;;;;;;;;;;28.86;39.31;94196.38;4970959;28;7181;-60
2022/08/23 03:33:41;;;;;;;;;;;;;;;28.86;38.96;94199.16;4970394;28;7161;-60
2022/08/23 03:36:11;;;;;;;;;;;;;;;28.86;38.68;94196.38;4977158;28;7285;-60
2022/08/23 03:38:39;;;;;;;;;;;;;;;28.86;38.85;94198.44;4975580;28;9127;-60
2022/08/23 03:41:06;;;;;;;;;;;;;;;28.85;38.83;94200.44;4979225;28;7355;-61
2022/08/23 03:43:33;;;;;;;;;;;;;;;28.87;38.49;94197.88;4972324;28;7534;-63
2022/08/23 03:46:08;;;;;;;;;;;;;;;28.86;38.67;94193.59;4968820;28;7223;-63
2022/08/23 03:49:10;;;;;;;;;;;;;;;28.86;38.62;94204.69;4962531;28;7166;-62
2022/08/23 03:51:38;;;;;;;;;;;;;;;28.84;39.08;94210.00;4956175;28;7688;-63
2022/08/23 03:54:35;;;;;;;;;;;;;;;28.83;38.60;94205.78;4971054;28;7733;-62
2022/08/23 03:57:04;;;;;;;;;;;;;;;28.83;38.59;94207.78;4970860;28;7203;-62
2022/08/23 03:59:32;;;;;;;;;;;;;;;28.81;38.79;94211.09;4970285;28;7034;-62
2022/08/23 04:01:58;;;;;;;;;;;;;;;28.81;38.25;94213.13;4950484;28;7870;-62
2022/08/23 04:04:24;;;;;;;;;;;;;;;28.81;38.19;94213.88;4970276;28;7152;-62
2022/08/23 04:06:50;;;;;;;;;;;;;;;28.81;38.99;94211.09;4966852;28;7198;-62
2022/08/23 04:09:18;;;;;;;;;;;;;;;28.82;38.84;94209.81;4970314;28;9365;-62
2022/08/23 04:12:02;;;;;;;;;;;;;;;28.82;38.62;94212.59;4971039;28;7498;-63
2022/08/23 04:15:02;;;;;;;;;;;;;;;28.83;38.64;94216.09;4970044;28;7838;-62
2022/08/23 04:17:37;;;;;;;;;;;;;;;28.82;38.77;94222.91;4970302;28;7317;-62
2022/08/23 04:20:17;;;;;;;;;;;;;;;28.81;38.84;94213.88;4970262;28;7097;-62
2022/08/23 04:22:46;;;;;;;;;;;;;;;28.80;38.77;94214.38;4965652;28;7203;-62
2022/08/23 04:25:23;;;;;;;;;;;;;;;28.81;39.16;94215.91;4971199;28;7210;-62
2022/08/23 04:28:14;;;;;;;;;;;;;;;28.80;38.09;94222.69;4970311;28;7105;-62
2022/08/23 04:30:43;;;;;;;;;;;;;;;28.78;38.82;94220.47;4968327;28;8627;-62
2022/08/23 04:33:24;;;;;;;;;;;;;;;28.79;38.89;94215.69;4967383;28;9156;-62
2022/08/23 04:35:51;;;;;;;;;;;;;;;28.77;38.47;94224.53;4969277;28;7015;-62
2022/08/23 04:38:19;;;;;;;;;;;;;;;28.76;38.42;94228.56;4966789;28;7313;-62
2022/08/23 04:43:33;;;;;;;;;;;;;;;28.76;38.75;94228.56;4969632;28;8937;-62
2022/08/23 04:45:59;;;;;;;;;;;;;;;28.76;38.22;94227.81;4964345;28;7231;-62
2022/08/23 04:48:58;;;;;;;;;;;;;;;28.75;38.76;94223.56;4966870;28;7280;-62
2022/08/23 04:51:44;;;;;;;;;;;;;;;28.74;39.07;94235.91;4967841;28;8499;-62
2022/08/23 04:54:13;;;;;;;;;;;;;;;28.71;38.40;94234.97;4977573;28;7553;-62
2022/08/23 04:56:53;;;;;;;;;;;;;;;28.68;38.82;94216.66;4971927;28;7080;-62
2022/08/23 04:59:32;;;;;;;;;;;;;;;28.71;38.58;94225.94;4985675;28;7283;-62
2022/08/23 05:02:28;;;;;;;;;;;;;;;28.72;38.46;94230.19;4973003;28;7007;-62
2022/08/23 05:04:54;;;;;;;;;;;;;;;28.73;38.79;94240.69;4931905;29;7023;-62
2022/08/23 05:07:22;;;;;;;;;;;;;;;28.71;38.48;94239.78;4927955;29;7221;-63
2022/08/23 05:09:48;;;;;;;;;;;;;;;28.70;38.35;94236.25;4909357;29;7303;-63
2022/08/23 05:12:16;;;;;;;;;;;;;;;28.70;38.96;94241.03;4915382;29;8710;-63
2022/08/23 05:14:42;;;;;;;;;;;;;;;28.69;38.48;94240.28;4911836;29;7231;-62
2022/08/23 05:17:08;;;;;;;;;;;;;;;28.69;38.74;94243.06;4908475;29;7212;-62
2022/08/23 05:19:40;;;;;;;;;;;;;;;28.68;38.61;94246.38;4931200;29;7241;-62
2022/08/23 05:22:25;;;;;;;;;;;;;;;28.67;39.39;94248.38;4918048;29;8145;-62
2022/08/23 05:24:50;;;;;;;;;;;;;;;28.67;39.27;94247.63;4929500;29;8732;-63
2022/08/23 05:27:36;;;;;;;;;;;;;;;28.68;38.97;94247.13;4911215;29;7189;-63
2022/08/23 05:30:20;;;;;;;;;;;;;;;28.69;38.59;94247.84;4912429;29;8514;-62
2022/08/23 05:32:46;;;;;;;;;;;;;;;28.69;38.49;94248.59;4916699;29;9889;-62
2022/08/23 05:35:26;;;;;;;;;;;;;;;28.68;39.06;94254.66;4907609;29;7569;-62
2022/08/23 05:37:52;;;;;;;;;;;;;;;28.68;38.84;94249.88;4915741;29;7212;-62
2022/08/23 05:40:18;;;;;;;;;;;;;;;28.68;38.68;94260.97;4912395;28;7156;-63
2022/08/23 05:42:48;;;;;;;;;;;;;;;28.68;39.25;94260.97;4967914;28;7236;-62
2022/08/23 05:45:15;;;;;;;;;;;;;;;28.66;38.65;94260.75;4966617;28;7261;-62
2022/08/23 05:47:43;;;;;;;;;;;;;;;28.68;38.87;94265.75;4965870;28;7243;-62
2022/08/23 05:50:12;;;;;;;;;;;;;;;28.68;38.65;94265.75;4978625;28;7269;-62
2022/08/23 05:52:39;;;;;;;;;;;;;;;28.66;38.45;94271.81;4984643;28;7139;-61
2022/08/23 05:55:21;;;;;;;;;;;;;;;28.67;38.04;94276.06;4976232;28;7229;-62
2022/08/23 05:58:19;;;;;;;;;;;;;;;28.66;38.45;94274.59;4971673;28;7420;-62
2022/08/23 06:00:49;;;;;;;;;;;;;;;28.67;38.54;94276.06;4935466;28;7219;-62
2022/08/23 06:03:18;;;;;;;;;;;;;;;28.67;38.27;94275.31;4949683;28;7307;-62
2022/08/23 06:05:44;;;;;;;;;;;;;;;28.68;38.64;94274.03;4948404;28;7965;-62
2022/08/23 06:08:10;;;;;;;;;;;;;;;28.67;38.64;94276.06;4945417;28;9391;-62
2022/08/23 06:10:45;;;;;;;;;;;;;;;28.66;38.84;94273.84;4932494;28;8272;-63
2022/08/23 06:13:26;;;;;;;;;;;;;;;28.69;38.60;94281.06;4949627;28;9472;-62
2022/08/23 06:16:22;;;;;;;;;;;;;;;28.66;38.66;94287.69;4932249;28;7372;-62
2022/08/23 06:19:01;;;;;;;;;;;;;;;28.61;38.96;94278.19;4929901;28;8536;-61
2022/08/23 06:21:58;;;;;;;;;;;;;;;28.59;38.57;94286.28;4937448;28;7437;-62
2022/08/23 06:24:25;;;;;;;;;;;;;;;28.55;38.87;94283.06;4900346;29;7561;-61
2022/08/23 06:27:02;;;;;;;;;;;;;;;28.54;38.73;94291.91;4913034;29;8710;-62
2022/08/23 06:29:30;;;;;;;;;;;;;;;28.52;38.63;94297.97;4914551;29;7330;-62
2022/08/23 06:31:56;;;;;;;;;;;;;;;28.51;37.85;94296.50;4901342;29;7083;-62
2022/08/23 06:34:34;;;;;;;;;;;;;;;28.48;37.91;94297.56;4915727;29;8329;-62
2022/08/23 06:37:07;;;;;;;;;;;;;;;28.48;37.73;94302.34;4896844;29;7258;-62
2022/08/23 06:39:38;;;;;;;;;;;;;;;28.46;37.74;94313.19;4892813;29;7917;-62
2022/08/23 06:42:07;;;;;;;;;;;;;;;28.45;38.00;94315.19;4907539;29;7197;-62
2022/08/23 06:44:37;;;;;;;;;;;;;;;28.43;37.61;94312.22;4908355;29;7360;-61
2022/08/23 06:47:14;;;;;;;;;;;;;;;28.40;37.78;94309.78;4912174;29;7219;-62
2022/08/23 06:49:51;;;;;;;;;;;;;;;28.42;37.67;94323.84;4909285;29;9107;-62
2022/08/23 06:52:27;;;;;;;;;;;;;;;28.41;37.49;94314.03;4909872;29;7024;-62
2022/08/23 06:55:07;;;;;;;;;;;;;;;28.40;37.27;94327.13;4897627;29;9494;-62
2022/08/23 06:57:42;;;;;;;;;;;;;;;28.38;37.62;94321.41;4895778;29;7309;-62
2022/08/23 07:00:11;;;;;;;;;;;;;;;28.37;37.60;94325.41;4908526;28;7090;-62
2022/08/23 07:02:38;;;;;;;;;;;;;;;28.36;37.75;94323.94;4963128;28;7181;-62
2022/08/23 07:05:06;;;;;;;;;;;;;;;28.35;37.37;94327.97;4982933;28;9440;-62
2022/08/23 07:07:43;;;;;;;;;;;;;;;28.33;37.47;94333.28;4968101;28;7874;-62
2022/08/23 07:10:13;;;;;;;;;;;;;;;28.34;37.09;94332.00;4968216;28;7487;-62
2022/08/23 07:12:49;;;;;;;;;;;;;;;28.35;36.90;94334.25;4968249;28;8572;-62
2022/08/23 07:15:43;;;;;;;;;;;;;;;28.35;37.07;94339.03;4972379;28;9250;-62
2022/08/23 07:18:14;;;;;;;;;;;;;;;28.33;36.84;94341.59;4968559;28;7586;-62
2022/08/23 07:21:11;;;;;;;;;;;;;;;28.32;36.90;94340.84;4968878;28;9050;-62
2022/08/23 07:23:46;;;;;;;;;;;;;;;28.30;36.69;94342.66;4970357;28;9499;-62
2022/08/23 07:26:34;;;;;;;;;;;;;;;28.29;37.45;94336.38;4953748;28;7394;-62
2022/08/23 07:29:07;;;;;;;;;;;;;;;28.29;37.49;94341.91;4967709;28;7228;-62
2022/08/23 07:31:39;;;;;;;;;;;;;;;28.28;37.01;94339.66;4952957;28;7501;-62
2022/08/23 07:34:08;;;;;;;;;;;;;;;28.26;37.41;94339.44;4951127;28;8621;-62
2022/08/23 07:36:35;;;;;;;;;;;;;;;28.30;37.37;94339.88;4969383;28;7479;-62
2022/08/23 07:39:08;;;;;;;;;;;;;;;28.29;37.52;94346.69;4952616;28;7371;-62
2022/08/23 07:41:36;;;;;;;;;;;;;;;28.29;37.39;94347.44;4968099;28;7196;-62
2022/08/23 07:44:19;;;;;;;;;;;;;;;28.31;37.02;94344.16;4954349;28;7013;-63
2022/08/23 07:46:46;;;;;;;;;;;;;;;28.30;37.32;94345.41;4969313;28;7027;-63
2022/08/23 07:49:29;;;;;;;;;;;;;;;28.28;37.12;94345.19;4969804;28;7516;-64
2022/08/23 07:52:06;;;;;;;;;;;;;;;28.26;37.56;94340.19;4970035;28;7194;-61
2022/08/23 07:54:33;;;;;;;;;;;;;;;28.27;38.29;94349.97;4953276;28;7073;-61
2022/08/23 07:57:30;;;;;;;;;;;;;;;28.26;37.95;94353.28;4957504;28;9253;-61
2022/08/23 08:00:07;;;;;;;;;;;;;;;28.27;37.45;94360.31;4919638;29;7372;-61
2022/08/23 08:02:33;;;;;;;;;;;;;;;28.26;38.26;94370.63;4896293;29;9425;-61
2022/08/23 08:05:02;;;;;;;;;;;;;;;28.28;37.88;94365.31;4906479;29;9360;-61
2022/08/23 08:07:30;;;;;;;;;;;;;;;28.28;38.15;94361.78;4905558;29;7237;-61
2022/08/23 08:10:11;;;;;;;;;;;;;;;28.28;38.41;94364.56;4892681;29;7456;-61
2022/08/23 08:12:46;;;;;;;;;;;;;;;28.29;37.85;94366.06;4890873;29;9403;-62
2022/08/23 08:15:22;;;;;;;;;;;;;;;28.29;38.07;94371.59;4896145;29;9116;-61
2022/08/23 08:17:53;;;;;;;;;;;;;;;28.29;38.20;94374.34;4909593;29;6986;-61
2022/08/23 08:20:29;;;;;;;;;;;;;;;28.30;38.26;94370.31;4906899;29;7142;-61
2022/08/23 08:23:14;;;;;;;;;;;;;;;28.30;38.23;94375.84;4874875;29;7490;-61
2022/08/23 08:26:11;;;;;;;;;;;;;;;28.28;38.06;94381.16;4887818;29;7268;-60
2022/08/23 08:28:39;;;;;;;;;;;;;;;28.27;38.34;94383.16;4908454;29;10551;-60
2022/08/23 08:31:15;;;;;;;;;;;;;;;28.28;38.36;94381.16;4910791;29;7069;-61
2022/08/23 08:33:54;;;;;;;;;;;;;;;28.28;38.29;94386.69;4907652;29;9659;-61
2022/08/23 08:36:48;;;;;;;;;;;;;;;28.29;38.14;94385.44;4929919;28;6959;-61
2022/08/23 08:39:18;;;;;;;;;;;;;;;28.29;38.06;94390.97;4939772;28;7787;-61
2022/08/23 08:42:08;;;;;;;;;;;;;;;28.28;38.02;94394.97;4939290;28;8931;-61
2022/08/23 08:44:48;;;;;;;;;;;;;;;28.27;37.80;94393.50;4916464;28;7842;-62
2022/08/23 08:47:46;;;;;;;;;;;;;;;28.28;38.07;94395.72;4914973;29;7555;-61
2022/08/23 08:50:25;;;;;;;;;;;;;;;28.31;37.88;94394.69;4913939;29;7552;-61
2022/08/23 08:53:08;;;;;;;;;;;;;;;28.30;37.95;94397.97;4914654;28;7462;-60
2022/08/23 08:55:48;;;;;;;;;;;;;;;28.31;37.69;94394.69;4930782;28;7480;-61
2022/08/23 08:58:44;;;;;;;;;;;;;;;28.31;37.16;94389.16;4936115;29;7433;-61
2022/08/23 09:01:24;;;;;;;;;;;;;;;28.31;37.41;94393.94;4933900;29;9110;-61
2022/08/23 09:03:51;;;;;;;;;;;;;;;28.32;37.06;94395.41;4920375;29;7256;-61
2022/08/23 09:07:11;;;;;;;;;;;;;;;28.32;37.44;94395.41;4907380;29;9834;-61
2022/08/23 09:10:14;;;;;;;;;;;;;;;28.34;37.13;94398.41;4922707;29;7240;-61
2022/08/23 09:17:01;;;;;;;;;;;;;;;28.36;37.15;94393.09;4946197;28;7023;-61
2022/08/23 09:19:49;;;;;;;;;;;;;;;28.36;37.18;94401.41;4925137;29;7382;-61
2022/08/23 09:22:40;;;;;;;;;;;;;;;28.35;37.51;94397.88;4914031;29;7246;-61
2022/08/23 09:25:11;;;;;;;;;;;;;;;28.34;37.60;94399.16;4928996;29;7026;-61
2022/08/23 09:28:01;;;;;;;;;;;;;;;28.36;37.17;94390.34;4915752;29;9823;-61
2022/08/23 09:30:53;;;;;;;;;;;;;;;28.39;37.43;94397.56;4928756;29;7254;-61
2022/08/23 09:33:50;;;;;;;;;;;;;;;28.38;37.14;94398.84;4930954;29;7218;-61
2022/08/23 09:36:25;;;;;;;;;;;;;;;28.39;36.64;94400.34;4921530;29;7324;-61
2022/08/23 09:38:53;;;;;;;;;;;;;;;28.39;36.11;94394.78;4921925;29;7345;-61
2022/08/23 09:41:26;;;;;;;;;;;;;;;28.40;36.27;94401.09;4921341;29;7689;-62
2022/08/23 09:44:00;;;;;;;;;;;;;;;28.40;36.75;94401.09;4909549;29;7321;-62
2022/08/23 09:46:32;;;;;;;;;;;;;;;28.42;36.85;94399.28;4924073;29;9409;-61
2022/08/23 09:49:19;;;;;;;;;;;;;;;28.41;36.19;94397.03;4910342;29;7448;-62
2022/08/23 09:52:24;;;;;;;;;;;;;;;28.45;36.52;94398.22;4909345;29;7546;-61
2022/08/23 09:55:10;;;;;;;;;;;;;;;28.45;36.32;94400.97;4890947;29;9318;-61
2022/08/23 09:57:38;;;;;;;;;;;;;;;28.47;36.67;94401.19;4895460;29;7292;-62
2022/08/23 10:00:14;;;;;;;;;;;;;;;28.48;36.01;94391.63;4929525;29;7230;-61
2022/08/23 10:02:56;;;;;;;;;;;;;;;28.50;35.08;94400.13;4915995;29;9636;-62
2022/08/23 10:06:00;;;;;;;;;;;;;;;28.52;35.88;94394.06;4928519;29;9439;-61
2022/08/23 10:08:51;;;;;;;;;;;;;;;28.51;35.41;94392.59;4918990;29;7225;-61
2022/08/23 10:11:56;;;;;;;;;;;;;;;28.53;34.58;94392.81;4930096;29;7598;-61
2022/08/23 10:14:48;;;;;;;;;;;;;;;28.54;35.08;94386.72;4878746;29;7097;-61
2022/08/23 10:17:55;;;;;;;;;;;;;;;28.55;35.65;94385.47;4875916;29;7057;-61
2022/08/23 10:20:53;;;;;;;;;;;;;;;28.52;35.16;94383.75;4876967;29;9702;-61
2022/08/23 10:23:52;;;;;;;;;;;;;;;28.54;35.35;94383.97;4875800;29;9488;-61
2022/08/23 10:26:52;;;;;;;;;;;;;;;28.57;34.25;94387.69;4878293;29;7313;-61
2022/08/23 10:29:39;;;;;;;;;;;;;;;28.59;33.98;94390.69;4877986;29;9426;-61
2022/08/23 10:32:22;;;;;;;;;;;;;;;28.60;35.09;94384.63;4900228;29;7091;-61
2022/08/23 10:38:30;;;;;;;;;;;;;;;28.63;34.26;94380.81;4915598;29;7185;-62
2022/08/23 10:41:23;;;;;;;;;;;;;;;28.66;34.01;94379.75;4885572;29;9395;-61
2022/08/23 10:43:57;;;;;;;;;;;;;;;28.70;34.08;94369.13;4865591;29;9450;-62
2022/08/23 10:46:29;;;;;;;;;;;;;;;28.73;33.92;94376.34;4862758;29;9512;-61
2022/08/23 10:49:01;;;;;;;;;;;;;;;28.76;34.91;94375.28;4930397;28;7183;-61
2022/08/23 10:51:42;;;;;;;;;;;;;;;28.75;34.29;94378.59;4950325;28;6993;-61
2022/08/23 10:54:34;;;;;;;;;;;;;;;28.73;34.25;94378.38;4950172;28;7280;-62
2022/08/23 10:57:23;;;;;;;;;;;;;;;28.77;34.05;94374.00;4928782;28;7578;-62
2022/08/23 11:00:04;;;;;;;;;;;;;;;28.77;33.31;94368.47;4932056;29;9417;-62
2022/08/23 11:02:58;;;;;;;;;;;;;;;28.78;33.13;94369.97;4951033;28;7698;-62
2022/08/23 11:05:34;;;;;;;;;;;;;;;28.76;32.75;94358.66;4936067;28;9897;-62
2022/08/23 11:08:06;;;;;;;;;;;;;;;28.74;32.76;94352.19;4930033;28;9545;-62
2022/08/23 11:10:38;;;;;;;;;;;;;;;28.72;32.21;94344.41;4935148;28;7032;-62
2022/08/23 11:13:19;;;;;;;;;;;;;;;28.77;32.36;94351.88;4943402;28;7217;-62
2022/08/23 11:16:14;;;;;;;;;;;;;;;28.81;32.64;94346.75;4961407;28;7163;-62
2022/08/23 11:18:47;;;;;;;;;;;;;;;28.81;32.20;94341.22;4967972;28;8401;-62
2022/08/23 11:21:16;;;;;;;;;;;;;;;28.83;32.01;94344.19;4964820;28;9462;-62
2022/08/23 11:23:49;;;;;;;;;;;;;;;28.84;32.76;94344.94;4969044;28;7819;-62
2022/08/23 11:26:21;;;;;;;;;;;;;;;28.82;31.93;94342.69;4971337;28;7786;-62
2022/08/23 11:29:17;;;;;;;;;;;;;;;28.82;31.88;94348.22;4987298;28;7105;-62
2022/08/23 11:32:09;;;;;;;;;;;;;;;28.89;32.00;94341.31;4926430;28;7302;-62
2022/08/23 11:35:10;;;;;;;;;;;;;;;28.94;32.23;94343.22;4945519;28;7657;-62
2022/08/23 11:37:55;;;;;;;;;;;;;;;28.93;30.94;94330.66;4890175;29;9582;-62
2022/08/23 11:40:36;;;;;;;;;;;;;;;28.91;30.84;94333.97;4876685;29;7861;-62
2022/08/23 11:43:21;;;;;;;;;;;;;;;28.88;31.39;94326.72;4876437;29;9312;-62
2022/08/23 11:45:47;;;;;;;;;;;;;;;28.92;30.78;94329.16;4886215;29;7285;-62
2022/08/23 11:48:28;;;;;;;;;;;;;;;28.91;31.36;94322.88;4881858;29;7178;-62
2022/08/23 11:51:24;;;;;;;;;;;;;;;28.93;31.11;94325.84;4888413;29;7218;-62
2022/08/23 11:53:53;;;;;;;;;;;;;;;28.96;30.75;94330.34;4871565;29;9412;-61
2022/08/23 11:56:53;;;;;;;;;;;;;;;29.01;30.75;94325.97;4891278;29;7370;-62
2022/08/23 12:00:04;;;;;;;;;;;;;;;29.02;31.01;94327.44;4888416;29;7260;-61
2022/08/23 12:02:49;;;;;;;;;;;;;;;29.01;30.84;94321.16;4893212;29;9403;-61
2022/08/23 12:05:32;;;;;;;;;;;;;;;29.02;31.30;94325.44;4879179;29;7401;-61
2022/08/23 12:07:58;;;;;;;;;;;;;;;29.05;31.44;94320.84;4879676;29;7005;-61
2022/08/23 12:10:51;;;;;;;;;;;;;;;29.08;30.17;94323.28;4912431;29;7282;-61
2022/08/23 12:13:57;;;;;;;;;;;;;;;29.12;30.13;94316.69;4910177;28;7307;-61
2022/08/23 12:16:37;;;;;;;;;;;;;;;29.10;29.39;94306.88;4947652;28;7474;-61
2022/08/23 12:19:57;;;;;;;;;;;;;;;29.15;29.51;94310.03;4952610;28;7318;-61
2022/08/23 12:22:29;;;;;;;;;;;;;;;29.17;29.33;94310.31;4892085;29;7543;-62
2022/08/23 12:25:18;;;;;;;;;;;;;;;29.19;29.37;94313.28;4894527;29;7100;-61
2022/08/23 12:28:06;;;;;;;;;;;;;;;29.23;30.08;94314.41;4878285;29;7021;-61
2022/08/23 12:31:27;;;;;;;;;;;;;;;29.27;29.50;94308.56;4894623;29;7169;-62
2022/08/23 12:34:22;;;;;;;;;;;;;;;29.30;28.73;94318.56;4854670;29;7001;-61
2022/08/23 12:37:25;;;;;;;;;;;;;;;29.33;29.90;94311.94;4839295;29;7217;-62
2022/08/23 12:40:02;;;;;;;;;;;;;;;29.30;28.58;94307.47;4818108;29;7224;-61
2022/08/23 12:42:38;;;;;;;;;;;;;;;29.27;28.00;94303.03;4812944;29;7309;-61
2022/08/23 12:45:11;;;;;;;;;;;;;;;29.23;26.97;94303.34;4816599;29;7291;-62
2022/08/23 12:47:42;;;;;;;;;;;;;;;29.25;27.19;94306.34;4801769;29;7464;-62
2022/08/23 12:50:14;;;;;;;;;;;;;;;29.30;27.91;94302.69;4785148;29;8189;-61
2022/08/23 12:52:58;;;;;;;;;;;;;;;29.38;28.46;94295.22;4783507;30;7124;-61
2022/08/23 12:55:46;;;;;;;;;;;;;;;29.43;26.37;94288.03;4769346;30;8620;-61
2022/08/23 12:58:16;;;;;;;;;;;;;;;29.45;26.77;94291.75;4814712;29;7304;-61
2022/08/23 13:00:56;;;;;;;;;;;;;;;29.49;28.22;94288.66;4837994;29;7255;-61
2022/08/23 13:03:31;;;;;;;;;;;;;;;29.53;28.35;94291.84;4822384;29;9453;-62
2022/08/23 13:06:20;;;;;;;;;;;;;;;29.54;28.21;94287.78;4824228;29;7375;-61
2022/08/23 13:08:54;;;;;;;;;;;;;;;29.55;28.40;94286.50;4890097;29;7234;-61
2022/08/23 13:11:41;;;;;;;;;;;;;;;29.60;27.38;94288.41;4903867;29;7338;-61
2022/08/23 13:14:30;;;;;;;;;;;;;;;29.67;25.28;94287.72;4951448;28;7208;-61
2022/08/23 13:17:26;;;;;;;;;;;;;;;29.68;27.02;94281.66;4966422;28;7301;-61
2022/08/23 13:20:21;;;;;;;;;;;;;;;29.75;26.34;94283.03;4963764;28;6993;-61
2022/08/23 13:23:00;;;;;;;;;;;;;;;29.80;25.74;94279.38;4979686;28;9320;-61
2022/08/23 13:25:40;;;;;;;;;;;;;;;29.84;26.58;94284.59;4983619;28;7092;-62
2022/08/23 13:28:25;;;;;;;;;;;;;;;29.85;25.02;94277.75;4984063;28;7284;-62
2022/08/23 13:31:06;;;;;;;;;;;;;;;29.89;26.08;94278.13;4964781;28;7047;-62
2022/08/23 13:33:37;;;;;;;;;;;;;;;29.92;25.72;94277.06;4966231;28;7274;-62
2022/08/23 13:36:23;;;;;;;;;;;;;;;29.94;26.59;94275.25;4972901;28;7041;-61
2022/08/23 13:38:49;;;;;;;;;;;;;;;29.96;26.18;94278.22;4981518;28;7228;-61
2022/08/23 13:41:34;;;;;;;;;;;;;;;30.00;27.85;94278.63;4982063;28;9099;-61
2022/08/23 13:44:07;;;;;;;;;;;;;;;29.98;26.98;94275.63;4972055;28;7521;-61
2022/08/23 13:46:33;;;;;;;;;;;;;;;30.02;25.33;94272.50;4986203;28;7279;-61
2022/08/23 13:49:21;;;;;;;;;;;;;;;30.12;25.69;94281.84;4969958;28;7046;-61
2022/08/23 13:52:14;;;;;;;;;;;;;;;30.17;26.58;94280.94;4974034;28;7009;-61
2022/08/23 13:54:45;;;;;;;;;;;;;;;30.15;27.22;94278.72;4969142;28;8605;-61
2022/08/23 13:57:15;;;;;;;;;;;;;;;30.15;26.69;94286.28;4968935;28;9002;-61
2022/08/23 13:59:57;;;;;;;;;;;;;;;30.17;26.54;94280.94;4966419;28;8330;-61
2022/08/23 14:02:25;;;;;;;;;;;;;;;30.19;27.00;94276.34;4970735;28;9009;-61
2022/08/23 14:04:53;;;;;;;;;;;;;;;30.15;28.34;94275.94;4983669;28;8813;-61
2022/08/23 14:07:20;;;;;;;;;;;;;;;30.19;25.09;94284.66;4965590;28;7707;-62
2022/08/23 14:09:56;;;;;;;;;;;;;;;30.25;25.86;94276.97;4971101;28;7236;-61
2022/08/23 14:12:29;;;;;;;;;;;;;;;30.30;26.20;94273.28;4968739;28;7423;-62
2022/08/23 14:14:59;;;;;;;;;;;;;;;30.32;25.85;94275.56;4969542;28;7500;-61
2022/08/23 14:17:41;;;;;;;;;;;;;;;30.39;25.64;94275.59;4968437;28;8469;-61